Time;durP1;ratioP1;P1;durP2;ratioP2;P2;SDS_P1;SDS_P2;PMS_P1;PMS_P2;Temp;Humidity;BMP_temperature;BMP_pressure;BME280_temperature;BME280_humidity;BME280_pressure;Samples;Min_cycle;Max_cycle;Signal;HPM_P1;HPM_P2
2021/08/29 00:00:44;;;;;;;3.47;1.40;;;;;;;14.89;57.40;101605.75;7983685;28;20033;-69
2021/08/29 00:04:35;;;;;;;2.55;1.65;;;;;;;14.87;57.51;101605.03;7992480;28;20106;-69
2021/08/29 00:08:25;;;;;;;3.10;1.33;;;;;;;14.83;57.43;101592.13;7992298;28;20094;-68
2021/08/29 00:12:16;;;;;;;3.88;1.55;;;;;;;14.82;57.45;101593.91;7994630;28;20885;-69
2021/08/29 00:16:06;;;;;;;3.90;1.70;;;;;;;14.81;57.47;101594.88;7994652;28;20040;-69
2021/08/29 00:19:57;;;;;;;2.25;1.50;;;;;;;14.78;57.30;101584.53;7991296;28;20040;-68
2021/08/29 00:23:47;;;;;;;2.35;1.48;;;;;;;14.72;57.31;101585.78;7990744;28;20529;-69
2021/08/29 00:27:38;;;;;;;2.03;1.40;;;;;;;14.74;57.51;101586.53;7990283;28;20037;-69
2021/08/29 00:31:29;;;;;;;9.80;1.70;;;;;;;14.72;57.44;101577.88;7993205;28;20373;-69
2021/08/29 00:35:23;;;;;;;1.95;1.50;;;;;;;14.72;57.67;101577.88;7988702;28;20029;-69
2021/08/29 00:39:14;;;;;;;2.83;1.70;;;;;;;14.69;57.34;101566.66;7988493;28;20042;-69
2021/08/29 00:43:05;;;;;;;2.20;1.50;;;;;;;14.67;57.45;101565.94;7988110;28;20055;-69
2021/08/29 00:46:55;;;;;;;4.65;2.05;;;;;;;14.66;57.65;101573.03;7996281;28;20041;-69
2021/08/29 00:50:47;;;;;;;1.98;1.60;;;;;;;14.63;57.69;101556.53;7988724;28;20652;-68
2021/08/29 00:54:39;;;;;;;4.88;1.80;;;;;;;14.63;57.68;101554.72;7984062;28;20037;-68
2021/08/29 00:58:31;;;;;;;3.10;1.90;;;;;;;14.61;57.70;101556.66;7978287;28;20041;-69
2021/08/29 01:02:25;;;;;;;5.03;2.00;;;;;;;14.63;57.45;101557.38;7987958;28;20036;-69
2021/08/29 01:06:31;;;;;;;3.70;1.63;;;;;;;14.59;57.58;101553.25;7988419;28;20033;-69
2021/08/29 01:10:53;;;;;;;5.90;1.52;;;;;;;14.59;57.70;101557.69;7987878;28;20520;-68
2021/08/29 01:14:48;;;;;;;4.88;2.03;;;;;;;14.59;57.51;101552.41;7989269;28;20044;-69
2021/08/29 01:18:40;;;;;;;6.00;1.73;;;;;;;14.56;57.57;101552.63;7987948;28;20072;-69
2021/08/29 01:22:31;;;;;;;3.15;1.70;;;;;;;14.55;57.71;101548.28;7989017;28;20057;-69
2021/08/29 01:26:35;;;;;;;6.13;2.08;;;;;;;14.52;57.74;101546.72;7988077;28;20029;-69
2021/08/29 01:30:27;;;;;;;4.15;1.50;;;;;;;14.53;57.80;101560.78;7978392;28;20033;-69
2021/08/29 01:34:19;;;;;;;2.50;1.67;;;;;;;14.51;57.82;101552.97;7985521;28;20048;-69
2021/08/29 01:38:23;;;;;;;4.20;1.85;;;;;;;14.50;57.68;101547.81;7983276;28;20040;-69
2021/08/29 01:42:15;;;;;;;5.15;1.70;;;;;;;14.51;57.96;101547.69;7968320;28;20118;-69
2021/08/29 01:46:06;;;;;;;4.53;1.75;;;;;;;14.51;57.76;101546.81;7991049;28;20125;-68
2021/08/29 01:49:59;;;;;;;3.45;1.95;;;;;;;14.50;57.87;101553.94;7988433;28;20452;-68
2021/08/29 01:53:50;;;;;;;3.58;1.60;;;;;;;14.48;57.95;101550.56;7990122;28;20484;-68
2021/08/29 01:58:00;;;;;;;2.08;1.23;;;;;;;14.47;57.99;101555.94;7994369;28;20126;-69
2021/08/29 02:01:58;;;;;;;;;;;;;;;14.33;58.22;101556.91;7995568;28;20036;-68
2021/08/29 02:05:56;;;;;;;2.75;1.55;;;;;;;14.38;57.98;101550.31;7993511;28;20023;-69
2021/08/29 02:09:51;;;;;;;9.50;1.98;;;;;;;14.41;58.10;101553.72;7992917;28;20021;-69
2021/08/29 02:13:43;;;;;;;2.35;1.50;;;;;;;14.42;58.30;101550.13;7999353;28;20041;-69
2021/08/29 02:17:36;;;;;;;5.88;2.08;;;;;;;14.44;57.99;101545.59;7999672;28;20576;-68
2021/08/29 02:21:28;;;;;;;4.60;1.98;;;;;;;14.45;58.22;101547.28;7992376;28;20501;-69
2021/08/29 02:25:20;;;;;;;6.82;2.25;;;;;;;14.44;58.00;101541.16;7992806;28;20033;-69
2021/08/29 02:29:13;;;;;;;9.25;1.83;;;;;;;14.40;58.11;101536.16;7990636;28;20115;-68
2021/08/29 02:33:06;;;;;;;3.30;1.92;;;;;;;14.44;58.19;101542.94;7994031;28;20040;-69
2021/08/29 02:37:00;;;;;;;2.92;2.00;;;;;;;14.45;58.14;101542.00;7993149;28;20055;-69
2021/08/29 02:41:05;;;;;;;5.22;1.98;;;;;;;14.44;58.25;101546.44;7987464;28;20119;-68
2021/08/29 02:44:59;;;;;;;3.53;1.90;;;;;;;14.42;58.13;101547.47;7992873;28;20041;-69
2021/08/29 02:48:51;;;;;;;3.33;2.15;;;;;;;14.41;58.33;101544.00;7982426;28;20021;-69
2021/08/29 02:52:43;;;;;;;4.25;2.10;;;;;;;14.42;58.44;101536.91;7990942;28;20087;-69
2021/08/29 02:56:34;;;;;;;5.25;1.98;;;;;;;14.40;58.21;101537.00;7992953;28;20135;-69
2021/08/29 03:00:28;;;;;;;3.17;1.65;;;;;;;14.40;58.27;101534.38;7991318;28;20037;-69
2021/08/29 03:04:27;;;;;;;4.93;1.70;;;;;;;14.37;58.31;101529.31;7975661;28;20083;-69
2021/08/29 03:08:18;;;;;;;4.55;1.70;;;;;;;14.36;58.48;101525.81;7990957;28;20083;-69
2021/08/29 03:12:11;;;;;;;3.58;2.15;;;;;;;14.36;58.39;101524.97;7989926;28;20032;-69
2021/08/29 03:16:31;;;;;;;2.33;1.92;;;;;;;14.33;58.58;101530.47;7963191;28;20499;-69
2021/08/29 03:20:34;;;;;;;4.30;1.75;;;;;;;14.30;58.54;101526.22;7991787;28;20604;-68
2021/08/29 03:24:25;;;;;;;3.72;2.30;;;;;;;14.33;58.52;101528.69;7992485;28;20029;-68
2021/08/29 03:28:16;;;;;;;5.63;2.10;;;;;;;14.34;58.65;101532.13;7992113;28;20033;-69
2021/08/29 03:32:07;;;;;;;2.35;1.50;;;;;;;14.33;58.70;101520.75;7991821;28;20044;-68
2021/08/29 03:35:58;;;;;;;3.42;1.63;;;;;;;14.31;58.66;101520.00;7992963;28;20040;-69
2021/08/29 03:39:50;;;;;;;4.38;1.88;;;;;;;14.30;58.62;101523.59;7988273;28;20037;-68
2021/08/29 03:43:41;;;;;;;5.45;1.67;;;;;;;14.28;58.75;101516.75;7991680;28;20037;-68
2021/08/29 03:47:35;;;;;;;4.78;2.30;;;;;;;14.27;58.79;101515.03;7997584;28;20764;-69
2021/08/29 03:51:26;;;;;;;5.18;1.80;;;;;;;14.30;58.67;101513.03;7989945;28;20025;-69
2021/08/29 03:55:17;;;;;;;5.32;2.05;;;;;;;14.29;58.90;101521.94;7987501;28;20036;-69
2021/08/29 03:59:08;;;;;;;2.75;1.63;;;;;;;14.31;58.72;101516.50;7991300;28;20131;-69
2021/08/29 04:02:59;;;;;;;5.53;2.15;;;;;;;14.31;58.79;101513.88;7990651;28;20048;-69
2021/08/29 04:07:09;;;;;;;4.18;1.63;;;;;;;14.29;58.99;101506.06;7990821;28;20044;-68
2021/08/29 04:11:28;;;;;;;3.40;1.40;;;;;;;14.30;58.79;101510.38;7987174;28;20021;-68
2021/08/29 04:15:20;;;;;;;4.10;1.80;;;;;;;14.24;58.88;101505.56;7990521;28;20064;-69
2021/08/29 04:19:14;;;;;;;4.13;2.00;;;;;;;14.29;58.93;101508.72;7990413;28;20083;-68
2021/08/29 04:23:04;;;;;;;5.95;1.90;;;;;;;14.29;59.11;101500.78;7979042;28;20041;-69
2021/08/29 04:26:57;;;;;;;3.92;2.22;;;;;;;14.31;58.92;101500.66;7990851;28;20675;-69
2021/08/29 04:30:50;;;;;;;7.35;2.30;;;;;;;14.29;59.31;101494.66;7982657;28;20029;-68
2021/08/29 04:34:41;;;;;;;3.85;1.67;;;;;;;14.29;59.25;101490.22;7989737;28;20079;-69
2021/08/29 04:38:45;;;;;;;3.60;1.88;;;;;;;14.30;58.92;101489.25;7989678;28;20045;-69
2021/08/29 04:42:35;;;;;;;6.93;1.90;;;;;;;14.32;59.23;101491.78;7973521;28;20060;-69
2021/08/29 04:46:26;;;;;;;7.55;1.75;;;;;;;14.33;59.10;101496.97;7990853;28;20045;-68
2021/08/29 04:50:17;;;;;;;7.22;2.53;;;;;;;14.33;59.15;101485.56;7989843;28;20409;-68
2021/08/29 04:54:08;;;;;;;3.33;1.92;;;;;;;14.35;59.06;101496.84;7990253;28;20110;-69
2021/08/29 04:58:00;;;;;;;2.00;1.50;;;;;;;14.35;59.25;101494.19;7967494;28;20041;-69
2021/08/29 05:01:53;;;;;;;6.57;2.25;;;;;;;14.35;59.31;101499.47;7991168;28;20394;-68
2021/08/29 05:05:45;;;;;;;5.85;1.80;;;;;;;14.35;59.24;101507.41;7987797;28;20505;-68
2021/08/29 05:09:37;;;;;;;5.38;2.20;;;;;;;14.33;59.37;101490.84;7988182;28;20129;-68
2021/08/29 05:13:30;;;;;;;4.30;1.90;;;;;;;14.33;59.51;101496.13;7994658;28;20109;-68
2021/08/29 05:17:20;;;;;;;4.00;1.73;;;;;;;14.28;59.33;101493.81;7995811;28;20036;-68
2021/08/29 05:21:14;;;;;;;5.38;1.75;;;;;;;14.35;59.53;101502.97;7987502;28;20042;-68
2021/08/29 05:25:23;;;;;;;5.75;2.17;;;;;;;14.36;59.46;101499.38;7985938;28;20037;-68
2021/08/29 05:29:14;;;;;;;3.88;1.80;;;;;;;14.39;59.41;101495.66;7991997;28;20033;-68
2021/08/29 05:33:06;;;;;;;4.72;2.00;;;;;;;14.40;60.08;101499.16;7995640;28;20049;-69
2021/08/29 05:36:57;;;;;;;3.78;1.80;;;;;;;14.36;59.40;101498.53;7994695;28;20035;-67
2021/08/29 05:40:48;;;;;;;4.28;1.75;;;;;;;14.42;59.39;101499.91;7994047;28;20404;-68
2021/08/29 05:44:57;;;;;;;4.30;1.98;;;;;;;14.44;59.73;101500.66;7993915;28;20086;-68
2021/08/29 05:48:50;;;;;;;3.63;2.20;;;;;;;14.46;59.51;101504.91;7993609;28;20040;-67
2021/08/29 05:52:41;;;;;;;7.82;1.75;;;;;;;14.49;59.58;101504.66;7992951;28;20405;-68
2021/08/29 05:56:31;;;;;;;5.88;2.15;;;;;;;14.51;59.74;101504.53;7995018;28;20501;-68
2021/08/29 06:00:23;;;;;;;5.50;1.90;;;;;;;14.54;59.57;101499.88;7993116;28;20032;-67
2021/08/29 06:04:19;;;;;;;5.20;2.50;;;;;;;14.56;59.56;101503.25;7993392;28;20040;-68
2021/08/29 06:08:12;;;;;;;5.13;1.90;;;;;;;14.58;59.75;101506.63;7993179;28;20498;-67
2021/08/29 06:12:03;;;;;;;4.32;1.95;;;;;;;14.55;59.38;101495.41;7992696;28;20040;-68
2021/08/29 06:15:55;;;;;;;6.57;2.38;;;;;;;14.56;59.94;101505.03;7994903;28;20033;-68
2021/08/29 06:19:46;;;;;;;4.75;2.22;;;;;;;14.61;59.38;101513.50;7992569;28;20029;-68
2021/08/29 06:23:36;;;;;;;5.07;1.52;;;;;;;14.61;59.70;101495.84;7992670;28;20136;-67
2021/08/29 06:27:46;;;;;;;4.63;2.08;;;;;;;14.65;59.71;101496.44;7993785;28;20032;-67
2021/08/29 06:32:12;;;;;;;3.95;1.90;;;;;;;14.65;59.70;101492.00;7979960;28;20054;-68
2021/08/29 06:36:19;;;;;;;4.90;1.52;;;;;;;14.66;59.73;101493.72;7994895;28;20036;-68
2021/08/29 06:40:10;;;;;;;8.65;2.42;;;;;;;14.68;59.77;101491.78;7990362;28;20033;-67
2021/08/29 06:44:01;;;;;;;4.60;2.03;;;;;;;14.73;59.67;101494.09;7993972;28;20154;-68
2021/08/29 06:48:10;;;;;;;4.53;2.05;;;;;;;14.67;59.73;101474.22;7997858;28;20072;-68
2021/08/29 06:52:27;;;;;;;5.22;1.83;;;;;;;14.71;59.58;101483.59;7972769;28;20045;-68
2021/08/29 06:56:56;;;;;;;4.30;1.85;;;;;;;14.73;59.78;101481.72;7941167;28;20568;-68
2021/08/29 07:00:51;;;;;;;5.43;1.90;;;;;;;14.76;59.78;101483.28;7956858;28;20050;-68
2021/08/29 07:04:42;;;;;;;6.82;2.20;;;;;;;14.79;59.70;101491.81;7991446;28;20029;-68
2021/08/29 07:08:35;;;;;;;5.75;2.28;;;;;;;14.82;59.56;101482.81;7991230;28;20025;-68
2021/08/29 07:12:27;;;;;;;6.22;2.65;;;;;;;14.79;59.68;101467.19;7991757;28;20064;-68
2021/08/29 07:16:18;;;;;;;4.55;2.00;;;;;;;14.84;59.92;101470.31;7988503;28;20047;-68
2021/08/29 07:20:09;;;;;;;6.38;2.60;;;;;;;14.91;59.72;101476.88;8007727;28;20549;-68
2021/08/29 07:24:32;;;;;;;5.97;2.70;;;;;;;14.92;59.83;101478.53;8009257;28;20895;-68
2021/08/29 07:28:42;;;;;;;8.75;3.10;;;;;;;14.96;59.94;101479.97;8009020;28;20558;-68
2021/08/29 07:33:11;;;;;;;5.20;2.72;;;;;;;15.00;59.96;101480.63;7972713;28;20045;-68
2021/08/29 07:37:11;;;;;;;3.72;2.25;;;;;;;15.04;59.36;101477.59;7969276;28;20685;-68
2021/08/29 07:41:02;;;;;;;8.68;2.50;;;;;;;15.08;59.87;101472.94;7988841;28;20477;-68
2021/08/29 07:44:53;;;;;;;8.88;2.33;;;;;;;15.08;60.00;101468.50;7979412;28;20429;-67
2021/08/29 07:48:48;;;;;;;7.43;2.55;;;;;;;15.05;59.64;101465.22;7990805;28;20095;-68
2021/08/29 07:52:39;;;;;;;6.55;2.60;;;;;;;15.10;59.71;101477.16;7991023;28;20037;-68
2021/08/29 07:56:48;;;;;;;4.72;2.20;;;;;;;15.08;59.25;101468.50;7983285;28;20041;-68
2021/08/29 08:00:39;;;;;;;7.32;2.05;;;;;;;15.06;59.53;101472.22;7989891;28;20459;-68
2021/08/29 08:04:48;;;;;;;9.98;2.25;;;;;;;15.08;59.71;101472.94;7991093;28;20033;-67
2021/08/29 08:09:17;;;;;;;3.85;1.98;;;;;;;15.07;59.63;101476.53;7990534;28;20401;-68
2021/08/29 08:13:30;;;;;;;7.35;2.08;;;;;;;15.06;59.57;101477.50;7992286;28;20030;-68
2021/08/29 08:17:21;;;;;;;5.05;1.88;;;;;;;15.08;59.55;101472.94;7970935;28;20119;-68
2021/08/29 08:21:12;;;;;;;4.68;1.90;;;;;;;15.08;59.73;101470.31;7990292;28;20390;-68
2021/08/29 08:25:22;;;;;;;2.97;1.63;;;;;;;15.00;59.59;101457.63;7988070;28;20028;-67
2021/08/29 08:29:31;;;;;;;3.92;1.92;;;;;;;15.07;59.72;101480.03;7989583;28;20126;-68
2021/08/29 08:33:40;;;;;;;9.90;1.98;;;;;;;15.05;59.54;101473.16;7990853;28;20525;-68
2021/08/29 08:38:09;;;;;;;;;;;;;;;14.92;59.92;101473.22;7963097;28;20099;-68
2021/08/29 08:42:18;;;;;;;2.20;1.63;;;;;;;15.02;59.68;101468.09;7978342;28;19964;-68
2021/08/29 08:46:28;;;;;;;3.63;1.60;;;;;;;15.03;59.77;101469.78;7981147;28;20057;-67
2021/08/29 08:50:48;;;;;;;4.28;1.75;;;;;;;15.05;59.86;101479.28;7982379;28;20026;-68
2021/08/29 08:55:00;;;;;;;3.13;1.52;;;;;;;15.02;59.86;101483.97;7975492;28;20143;-67
2021/08/29 08:59:09;;;;;;;2.17;1.23;;;;;;;15.03;59.80;101481.22;7978876;28;20104;-68
2021/08/29 09:03:26;;;;;;;2.63;1.55;;;;;;;15.06;60.00;101470.41;7972778;28;20045;-68
2021/08/29 09:07:32;;;;;;;3.33;1.77;;;;;;;15.10;59.79;101474.50;7973408;28;20065;-68
2021/08/29 09:11:22;;;;;;;2.55;1.63;;;;;;;15.14;59.92;101468.03;7973229;28;20091;-67
2021/08/29 09:15:20;;;;;;;2.83;1.65;;;;;;;15.16;59.82;101471.41;7973646;28;20093;-67
2021/08/29 09:19:17;;;;;;;8.80;1.75;;;;;;;15.18;59.79;101463.34;7973653;28;20604;-68
2021/08/29 09:23:13;;;;;;;3.55;1.77;;;;;;;15.23;59.94;101461.19;7972870;28;20041;-67
2021/08/29 09:27:24;;;;;;;3.15;1.70;;;;;;;15.25;59.77;101461.91;7984747;28;20095;-67
2021/08/29 09:31:45;;;;;;;4.18;1.50;;;;;;;15.26;59.79;101459.16;8006003;28;20043;-67
2021/08/29 09:35:39;;;;;;;3.38;2.00;;;;;;;15.28;59.83;101459.03;8004649;28;20040;-68
2021/08/29 09:39:50;;;;;;;5.13;2.05;;;;;;;15.27;60.02;101455.53;7981635;28;20052;-68
2021/08/29 09:43:53;;;;;;;3.63;1.42;;;;;;;15.28;60.12;101456.41;7973285;28;20124;-67
2021/08/29 09:47:43;;;;;;;3.75;1.65;;;;;;;15.29;60.17;101460.78;7973228;28;20037;-68
2021/08/29 09:51:55;;;;;;;2.75;1.25;;;;;;;15.33;60.17;101462.22;7974175;28;20758;-67
2021/08/29 09:56:23;;;;;;;2.95;1.35;;;;;;;15.33;60.21;101448.13;7953306;28;20051;-68
2021/08/29 10:00:34;;;;;;;4.07;1.58;;;;;;;15.37;60.28;101461.03;7987483;28;20045;-68
2021/08/29 10:04:26;;;;;;;7.25;1.88;;;;;;;15.40;60.22;101457.28;7956256;28;20033;-68
2021/08/29 10:08:20;;;;;;;3.17;1.80;;;;;;;15.41;60.32;101446.59;7972132;28;20037;-68
2021/08/29 10:12:25;;;;;;;2.78;1.45;;;;;;;15.41;60.21;101453.69;7972661;28;20367;-68
2021/08/29 10:16:19;;;;;;;5.85;1.55;;;;;;;15.41;60.37;101451.03;7976314;28;20098;-67
2021/08/29 10:20:20;;;;;;;4.32;1.73;;;;;;;15.38;60.02;101448.59;7979175;28;20072;-68
2021/08/29 10:24:31;;;;;;;1.80;1.40;;;;;;;15.36;60.08;101440.78;7978193;28;20084;-67
2021/08/29 10:28:27;;;;;;;2.42;1.23;;;;;;;15.36;60.08;101448.75;7979155;28;20056;-68
2021/08/29 10:32:42;;;;;;;3.10;1.20;;;;;;;15.30;60.20;101441.25;7977527;28;20033;-67
2021/08/29 10:36:53;;;;;;;3.58;1.63;;;;;;;15.31;60.25;101436.81;7978738;28;20071;-68
2021/08/29 10:41:03;;;;;;;3.03;1.45;;;;;;;15.28;59.93;101441.34;7968950;28;20137;-68
2021/08/29 10:44:53;;;;;;;1.15;0.98;;;;;;;15.19;60.16;101427.97;7977326;28;20049;-68
2021/08/29 10:49:03;;;;;;;2.90;1.35;;;;;;;15.23;60.46;101435.56;7977101;28;20052;-67
2021/08/29 10:53:29;;;;;;;1.73;1.13;;;;;;;15.19;60.34;101438.56;7976083;28;20057;-68
2021/08/29 10:57:41;;;;;;;2.13;1.00;;;;;;;15.17;60.46;101433.38;8008486;28;20032;-68
2021/08/29 11:01:44;;;;;;;1.50;0.98;;;;;;;15.18;60.45;101428.94;8008288;28;20115;-68
2021/08/29 11:05:54;;;;;;;4.20;1.45;;;;;;;15.17;60.35;101430.72;8009809;28;20033;-68
2021/08/29 11:09:52;;;;;;;1.55;0.98;;;;;;;15.17;60.43;101427.25;8008034;28;20041;-67
2021/08/29 11:13:43;;;;;;;4.95;1.40;;;;;;;15.15;60.50;101422.09;8002763;28;20048;-68
2021/08/29 11:17:38;;;;;;;1.85;1.20;;;;;;;15.14;60.37;101427.47;7976378;28;20056;-67
2021/08/29 11:21:34;;;;;;;4.10;1.80;;;;;;;15.13;60.55;101417.84;7976188;28;20038;-68
2021/08/29 11:25:45;;;;;;;1.90;1.10;;;;;;;15.11;60.46;101412.69;7976772;28;20112;-68
2021/08/29 11:29:56;;;;;;;2.05;1.10;;;;;;;15.11;60.54;101414.50;7977327;28;20143;-68
2021/08/29 11:34:04;;;;;;;;;;;;;;;15.00;60.66;101415.28;7976779;28;20091;-67
2021/08/29 11:38:02;;;;;;;2.95;1.25;;;;;;;15.09;60.66;101414.59;7978117;28;19948;-68
2021/08/29 11:42:14;;;;;;;2.45;1.13;;;;;;;15.12;60.68;101409.09;8006969;28;20060;-67
2021/08/29 11:46:15;;;;;;;1.90;1.17;;;;;;;15.17;60.63;101414.00;7990780;28;20032;-67
2021/08/29 11:50:31;;;;;;;1.85;1.15;;;;;;;15.16;60.84;101407.91;8007991;28;20049;-68
2021/08/29 11:55:03;;;;;;;2.03;1.38;;;;;;;15.20;60.80;101405.84;8008197;28;20751;-68
2021/08/29 11:58:56;;;;;;;3.22;1.48;;;;;;;15.23;60.78;101405.59;8006425;28;20068;-67
2021/08/29 12:02:52;;;;;;;2.03;1.50;;;;;;;15.26;60.82;101411.50;8006618;28;20029;-68
2021/08/29 12:06:48;;;;;;;1.50;1.00;;;;;;;15.28;60.91;101403.47;8006191;28;20511;-68
2021/08/29 12:10:58;;;;;;;2.00;1.40;;;;;;;15.22;60.94;101395.97;7994657;28;20025;-68
2021/08/29 12:15:10;;;;;;;1.85;1.23;;;;;;;15.26;60.85;101406.22;7986847;28;20044;-68
2021/08/29 12:19:25;;;;;;;4.60;1.23;;;;;;;15.27;60.90;101404.41;7964657;28;20050;-68
2021/08/29 12:23:38;;;;;;;1.40;1.08;;;;;;;15.28;61.05;101406.09;7975452;28;20458;-68
2021/08/29 12:27:30;;;;;;;3.35;1.40;;;;;;;15.28;61.10;101399.00;7974624;28;20064;-67
2021/08/29 12:31:20;;;;;;;3.35;1.45;;;;;;;15.31;60.86;101402.41;7975012;28;20522;-68
2021/08/29 12:35:12;;;;;;;1.90;1.30;;;;;;;15.28;61.14;101395.53;7973990;28;20578;-68
2021/08/29 12:39:11;;;;;;;3.03;1.05;;;;;;;15.30;61.07;101385.66;7974530;28;20407;-68
2021/08/29 12:43:08;;;;;;;1.37;1.13;;;;;;;15.32;61.18;101393.50;8001227;28;20100;-67
2021/08/29 12:46:59;;;;;;;2.33;1.10;;;;;;;15.35;61.28;101394.09;7974049;28;20475;-68
2021/08/29 12:50:55;;;;;;;1.90;1.17;;;;;;;15.39;61.41;101386.75;7974885;28;20067;-68
2021/08/29 12:54:46;;;;;;;2.67;1.10;;;;;;;15.44;61.37;101388.09;7974814;28;20084;-68
2021/08/29 12:58:37;;;;;;;0.80;0.80;;;;;;;15.47;61.34;101385.19;7974860;28;20029;-68
2021/08/29 13:02:39;;;;;;;1.75;1.00;;;;;;;15.50;61.47;101377.00;7973203;28;20498;-68
2021/08/29 13:06:33;;;;;;;1.60;0.93;;;;;;;15.53;61.69;101387.38;7974881;28;20120;-68
2021/08/29 13:10:23;;;;;;;0.80;0.75;;;;;;;15.55;61.40;101382.78;7974275;28;20095;-68
2021/08/29 13:14:27;;;;;;;1.08;0.75;;;;;;;15.54;61.33;101389.03;7975076;28;20030;-68
2021/08/29 13:18:26;;;;;;;0.95;0.80;;;;;;;15.57;61.33;101380.03;7973418;28;20048;-68
2021/08/29 13:22:25;;;;;;;2.33;1.10;;;;;;;15.58;61.55;101365.84;7974337;28;20033;-68
2021/08/29 13:26:18;;;;;;;1.60;1.00;;;;;;;15.67;61.47;101380.97;7974462;28;20636;-68
2021/08/29 13:30:09;;;;;;;1.77;1.00;;;;;;;15.73;61.49;101372.56;7974481;28;20648;-67
2021/08/29 13:34:07;;;;;;;0.77;0.70;;;;;;;15.82;61.58;101373.63;7974484;28;20516;-68
2021/08/29 13:37:59;;;;;;;;;;;;;;;15.75;61.76;101372.44;7973776;28;20176;-68
2021/08/29 13:42:12;;;;;;;1.35;1.08;;;;;;;15.89;61.65;101358.91;7987675;28;19921;-68
2021/08/29 13:46:05;;;;;;;1.13;0.90;;;;;;;15.96;62.03;101366.22;7990208;28;20031;-68
2021/08/29 13:49:56;;;;;;;2.42;1.40;;;;;;;16.01;61.53;101360.56;7988027;28;20112;-68
2021/08/29 13:53:54;;;;;;;2.20;1.15;;;;;;;16.06;61.61;101363.69;7992406;28;20025;-68
2021/08/29 13:57:44;;;;;;;1.73;1.00;;;;;;;16.10;61.66;101355.38;8012214;28;20076;-68
2021/08/29 14:01:35;;;;;;;2.03;1.30;;;;;;;16.12;61.65;101361.41;8011209;28;20035;-68
2021/08/29 14:05:26;;;;;;;1.10;1.05;;;;;;;16.15;61.68;101363.81;8008965;28;20064;-68
2021/08/29 14:09:16;;;;;;;1.10;1.00;;;;;;;16.18;61.56;101365.38;7996802;28;20034;-68
2021/08/29 14:13:08;;;;;;;1.00;0.90;;;;;;;16.18;61.77;101363.56;8001990;28;20558;-68
2021/08/29 14:16:58;;;;;;;1.17;1.08;;;;;;;16.21;62.11;101356.31;7997497;28;20056;-68
2021/08/29 14:20:49;;;;;;;0.98;0.90;;;;;;;16.20;61.68;101358.16;7993912;28;20029;-68
2021/08/29 14:24:40;;;;;;;1.00;0.98;;;;;;;16.21;61.64;101354.50;7987703;28;20132;-68
2021/08/29 14:28:31;;;;;;;1.35;0.85;;;;;;;16.20;61.82;101358.16;7977984;28;20038;-68
2021/08/29 14:32:22;;;;;;;1.33;1.13;;;;;;;16.20;61.70;101355.50;7979090;28;20447;-68
2021/08/29 14:36:12;;;;;;;1.02;0.88;;;;;;;16.18;61.58;101352.97;7977060;28;20037;-68
2021/08/29 14:40:04;;;;;;;1.67;1.10;;;;;;;16.15;61.58;101355.88;8000938;28;20041;-68
2021/08/29 14:43:55;;;;;;;1.77;1.40;;;;;;;16.16;61.59;101357.53;8010438;28;20079;-68
2021/08/29 14:47:47;;;;;;;0.88;0.75;;;;;;;16.17;61.72;101361.03;8010096;28;20033;-68
2021/08/29 14:51:37;;;;;;;0.85;0.82;;;;;;;16.18;61.65;101360.91;8009395;28;20418;-67
2021/08/29 14:55:28;;;;;;;3.25;0.85;;;;;;;16.21;61.88;101361.59;7993053;28;20029;-68
2021/08/29 14:59:19;;;;;;;0.90;0.85;;;;;;;16.20;61.71;101350.19;7996778;28;20040;-68
2021/08/29 15:03:10;;;;;;;2.03;0.90;;;;;;;16.22;61.61;101356.19;7991169;28;20036;-68
2021/08/29 15:07:01;;;;;;;1.30;1.02;;;;;;;16.22;61.89;101348.25;8009819;28;20048;-68
2021/08/29 15:10:52;;;;;;;0.70;0.70;;;;;;;16.23;61.71;101344.63;8002780;28;20020;-68
2021/08/29 15:14:42;;;;;;;1.00;0.85;;;;;;;16.27;61.56;101338.09;7982522;28;20535;-68
2021/08/29 15:18:33;;;;;;;0.77;0.77;;;;;;;16.32;61.85;101349.19;7994223;28;20033;-68
2021/08/29 15:22:24;;;;;;;0.93;0.82;;;;;;;16.37;61.88;101351.44;7995909;28;20090;-68
2021/08/29 15:26:15;;;;;;;0.88;0.77;;;;;;;16.41;61.99;101351.03;8007848;28;20592;-68
2021/08/29 15:30:07;;;;;;;0.47;0.47;;;;;;;16.47;61.95;101363.81;8009020;28;20082;-68
2021/08/29 15:33:59;;;;;;;0.80;0.80;;;;;;;16.47;61.79;101349.69;8009064;28;20033;-68
2021/08/29 15:37:49;;;;;;;0.57;0.57;;;;;;;16.54;61.99;101354.34;8001501;28;20037;-68
2021/08/29 15:41:40;;;;;;;0.90;0.90;;;;;;;16.57;61.99;101356.78;7977385;28;20033;-68
2021/08/29 15:45:35;;;;;;;1.52;0.80;;;;;;;16.57;62.03;101351.47;7977130;28;20037;-67
2021/08/29 15:49:25;;;;;;;0.80;0.80;;;;;;;16.57;61.85;101356.78;7977119;28;20029;-67
2021/08/29 15:53:16;;;;;;;0.88;0.85;;;;;;;16.58;61.91;101363.75;7976072;28;20414;-68
2021/08/29 15:57:07;;;;;;;1.00;0.90;;;;;;;16.54;61.88;101349.06;7976799;28;20820;-67
2021/08/29 16:00:57;;;;;;;1.20;0.80;;;;;;;16.61;61.95;101344.94;7976390;28;20116;-68
2021/08/29 16:04:48;;;;;;;1.30;0.82;;;;;;;16.66;61.96;101347.19;7976598;28;20037;-67
2021/08/29 16:08:39;;;;;;;1.67;0.90;;;;;;;16.72;62.03;101349.34;7974602;28;20506;-68
2021/08/29 16:12:30;;;;;;;2.40;1.40;;;;;;;16.79;61.98;101347.00;7975298;28;20021;-68
2021/08/29 16:16:21;;;;;;;2.33;1.15;;;;;;;16.82;61.97;101344.94;7976056;28;20063;-68
2021/08/29 16:20:14;;;;;;;1.17;1.05;;;;;;;16.87;62.02;101347.19;7998647;28;20056;-68
2021/08/29 16:24:05;;;;;;;1.20;1.10;;;;;;;16.90;61.92;101341.63;8007073;28;20068;-68
2021/08/29 16:27:56;;;;;;;1.27;1.17;;;;;;;16.92;61.71;101340.53;8007206;28;20036;-68
2021/08/29 16:31:46;;;;;;;2.17;1.17;;;;;;;16.94;62.02;101340.44;8006765;28;20115;-68
2021/08/29 16:35:37;;;;;;;1.55;1.30;;;;;;;16.95;61.81;101342.94;7974184;28;20047;-68
2021/08/29 16:39:28;;;;;;;1.30;1.00;;;;;;;16.92;61.97;101331.75;7988064;28;20041;-68
2021/08/29 16:43:18;;;;;;;1.23;1.08;;;;;;;16.98;61.98;101342.69;8006891;28;20444;-67
2021/08/29 16:47:09;;;;;;;3.10;1.23;;;;;;;16.98;61.99;101344.50;7997034;28;20052;-68
2021/08/29 16:51:00;;;;;;;3.53;1.67;;;;;;;16.96;61.78;101334.00;7988456;28;20048;-68
2021/08/29 16:54:50;;;;;;;1.48;1.38;;;;;;;16.95;61.82;101342.09;7984495;28;20086;-67
2021/08/29 16:58:41;;;;;;;1.65;1.30;;;;;;;16.94;61.71;101343.09;7985691;28;20029;-68
2021/08/29 17:02:32;;;;;;;2.40;1.55;;;;;;;16.92;61.63;101348.50;7990641;28;20037;-68
2021/08/29 17:06:24;;;;;;;1.33;1.23;;;;;;;16.89;61.58;101345.25;7993203;28;20044;-68
2021/08/29 17:10:15;;;;;;;1.90;1.55;;;;;;;16.86;61.47;101343.72;7981819;28;20416;-68
2021/08/29 17:14:06;;;;;;;2.42;1.23;;;;;;;16.83;61.46;101340.44;7987898;28;20546;-68
2021/08/29 17:17:57;;;;;;;4.55;1.60;;;;;;;16.77;61.76;101344.47;7990979;28;20083;-68
2021/08/29 17:21:48;;;;;;;2.92;1.60;;;;;;;16.77;61.71;101341.84;7989350;28;20033;-67
2021/08/29 17:25:39;;;;;;;2.08;1.50;;;;;;;16.75;61.63;101348.22;7987638;28;20756;-67
2021/08/29 17:29:31;;;;;;;1.73;1.50;;;;;;;16.70;61.72;101340.66;7996798;28;20048;-68
2021/08/29 17:33:21;;;;;;;1.02;0.95;;;;;;;16.71;61.68;101345.00;8004320;28;20037;-67
2021/08/29 17:37:12;;;;;;;4.53;1.40;;;;;;;16.70;61.70;101353.09;7994198;28;20039;-68
2021/08/29 17:41:04;;;;;;;2.95;2.08;;;;;;;16.64;61.55;101342.03;7996431;28;20064;-68
2021/08/29 17:44:55;;;;;;;5.30;1.77;;;;;;;16.66;61.86;101349.84;7996417;28;20108;-68
2021/08/29 17:48:46;;;;;;;2.13;1.63;;;;;;;16.60;61.61;101345.06;7995244;28;20033;-68
2021/08/29 17:52:36;;;;;;;2.92;1.65;;;;;;;16.60;61.83;101351.22;7994934;28;20025;-68
2021/08/29 17:56:27;;;;;;;5.10;2.13;;;;;;;16.55;61.85;101350.75;7994933;28;20024;-68
2021/08/29 18:00:18;;;;;;;3.63;1.92;;;;;;;16.55;61.79;101355.22;7994900;28;20117;-68
2021/08/29 18:04:09;;;;;;;6.53;1.88;;;;;;;16.55;61.70;101355.22;7994236;28;20064;-68
2021/08/29 18:07:59;;;;;;;2.10;1.50;;;;;;;16.52;61.86;101366.94;7990525;28;20083;-68
2021/08/29 18:11:50;;;;;;;3.03;1.67;;;;;;;16.47;61.79;101361.16;7987226;28;20025;-68
2021/08/29 18:15:41;;;;;;;2.28;1.67;;;;;;;16.44;61.76;101368.53;7995843;28;20565;-68
2021/08/29 18:19:31;;;;;;;2.72;1.60;;;;;;;16.44;61.72;101376.47;7990530;28;20044;-68
2021/08/29 18:23:24;;;;;;;4.90;1.85;;;;;;;16.32;61.73;101357.13;7992442;28;20032;-68